Terminal Aerodrome Forecast
Issued by NWS Caribou, ME

Home | Current Version | Previous Version | Text Only | Print | Product List | Glossary On
Versions: 1 2 3 4 5 6 7 8 9 10 11 12 13 14 15 16 17
011
FTUS41 KCAR 172339
TAFCAR
TAF
KCAR 172339Z 1800/1824 04004KT P6SM SKC
     FM181100 12004KT P6SM BKN250
     FM181400 13005KT P6SM BKN030
     FM181600 13005KT P6SM BKN015
     FM182000 14005KT P6SM -SN OVC025=

USA.gov is the U.S. government's official web portal to all federal, state and local government web resources and services.